Time;durP1;ratioP1;P1;durP2;ratioP2;P2;SDS_P1;SDS_P2;PMS_P1;PMS_P2;Temp;Humidity;BMP_temperature;BMP_pressure;BME280_temperature;BME280_humidity;BME280_pressure;Samples;Min_cycle;Max_cycle;Signal;HPM_P1;HPM_P2
2022/08/11 00:01:55;;;;;;;;;;;;;;;25.01;33.94;101103.22;4994506;28;6977;-76
2022/08/11 00:04:25;;;;;;;;;;;;;;;25.00;34.15;101102.34;5001410;28;8040;-76
2022/08/11 00:06:53;;;;;;;;;;;;;;;25.01;33.68;101106.72;5012732;28;7232;-76
2022/08/11 00:09:30;;;;;;;;;;;;;;;25.00;33.84;101101.50;5015375;28;6972;-76
2022/08/11 00:11:58;;;;;;;;;;;;;;;24.99;33.95;101100.59;4982608;28;7193;-76
2022/08/11 00:14:30;;;;;;;;;;;;;;;24.96;34.00;101100.63;5011840;28;6792;-76
2022/08/11 00:17:03;;;;;;;;;;;;;;;24.93;34.09;101100.63;4996148;28;7010;-76
2022/08/11 00:19:41;;;;;;;;;;;;;;;24.89;34.03;101102.38;4977816;28;6962;-76
2022/08/11 00:22:08;;;;;;;;;;;;;;;24.86;34.48;101094.50;4981925;28;7806;-76
2022/08/11 00:24:38;;;;;;;;;;;;;;;24.81;34.29;101091.00;5014325;28;6808;-76
2022/08/11 00:27:05;;;;;;;;;;;;;;;24.76;34.49;101093.59;5000426;28;7324;-76
2022/08/11 00:29:33;;;;;;;;;;;;;;;24.71;34.59;101090.09;5000825;28;7132;-76
2022/08/11 00:32:04;;;;;;;;;;;;;;;24.67;34.24;101093.59;5004515;28;6821;-76
2022/08/11 00:34:35;;;;;;;;;;;;;;;24.63;34.77;101089.25;4968465;28;6816;-76
2022/08/11 00:37:10;;;;;;;;;;;;;;;24.58;34.60;101093.59;4980502;28;7048;-76
2022/08/11 00:39:51;;;;;;;;;;;;;;;24.53;34.96;101097.09;4998659;28;7072;-76
2022/08/11 00:43:07;;;;;;;;;;;;;;;24.47;34.83;101091.84;4976498;28;7703;-76
2022/08/11 00:46:04;;;;;;;;;;;;;;;24.39;35.18;101091.84;5008778;28;7154;-75
2022/08/11 00:49:26;;;;;;;;;;;;;;;24.33;34.98;101088.31;4984375;28;7844;-75
2022/08/11 00:52:19;;;;;;;;;;;;;;;24.26;35.32;101087.44;5009634;28;7007;-75
2022/08/11 00:55:09;;;;;;;;;;;;;;;24.21;35.62;101090.03;4983210;28;6804;-75
2022/08/11 00:57:53;;;;;;;;;;;;;;;24.17;35.48;101093.53;4978419;28;6792;-75
2022/08/11 01:00:23;;;;;;;;;;;;;;;24.12;35.92;101090.00;5010806;28;7334;-76
2022/08/11 01:03:17;;;;;;;;;;;;;;;24.09;35.31;101087.41;5012152;28;6871;-75
2022/08/11 01:06:11;;;;;;;;;;;;;;;24.05;35.51;101088.28;4978508;28;6974;-76
2022/08/11 01:08:39;;;;;;;;;;;;;;;24.02;35.56;101094.34;4979929;28;6804;-76
2022/08/11 01:11:30;;;;;;;;;;;;;;;23.98;36.19;101090.81;4982968;28;7178;-76
2022/08/11 01:14:21;;;;;;;;;;;;;;;23.96;36.08;101091.69;5027307;28;6985;-76
2022/08/11 01:17:42;;;;;;;;;;;;;;;23.91;36.17;101096.91;5019967;28;7000;-76
2022/08/11 01:20:47;;;;;;;;;;;;;;;23.85;35.82;101092.53;4981816;28;7213;-76
2022/08/11 01:23:53;;;;;;;;;;;;;;;23.81;36.11;101095.13;4978257;28;6808;-76
2022/08/11 01:27:09;;;;;;;;;;;;;;;23.75;36.31;101095.97;4977869;28;6823;-76
2022/08/11 01:30:18;;;;;;;;;;;;;;;23.63;35.79;101096.78;5024170;28;7250;-76
2022/08/11 01:33:36;;;;;;;;;;;;;;;23.50;36.20;101090.59;4956367;28;11396;-75
2022/08/11 01:36:40;;;;;;;;;;;;;;;23.38;37.41;101103.63;4969565;28;7245;-75
2022/08/11 01:39:26;;;;;;;;;;;;;;;23.24;37.31;101103.50;4956735;28;6792;-76
2022/08/11 01:45:36;;;;;;;;;;;;;;;22.96;37.88;101098.06;4956704;28;7055;-76
2022/08/11 01:48:27;;;;;;;;;;;;;;;22.85;38.57;101096.25;4987607;28;7070;-76
2022/08/11 01:51:36;;;;;;;;;;;;;;;22.73;38.13;101091.78;4980981;28;6824;-75
2022/08/11 01:54:16;;;;;;;;;;;;;;;22.62;38.59;101098.66;4950483;28;8336;-75
2022/08/11 01:56:57;;;;;;;;;;;;;;;22.53;39.08;101099.47;4985768;28;7015;-75
2022/08/11 01:59:28;;;;;;;;;;;;;;;22.44;39.29;101099.34;4989402;28;8168;-75
2022/08/11 02:02:44;;;;;;;;;;;;;;;22.38;39.36;101099.28;5005930;28;7293;-75
2022/08/11 02:05:50;;;;;;;;;;;;;;;22.27;39.80;101102.66;4982002;28;6987;-75
2022/08/11 02:08:53;;;;;;;;;;;;;;;22.20;39.89;101103.44;5012101;28;7317;-76
2022/08/11 02:11:35;;;;;;;;;;;;;;;22.16;39.77;101099.06;4998482;28;7212;-76
2022/08/11 02:14:43;;;;;;;;;;;;;;;22.15;39.89;101102.53;5010768;28;6952;-76
2022/08/11 02:17:31;;;;;;;;;;;;;;;22.16;39.82;101102.56;4985139;28;6991;-76
2022/08/11 02:26:22;;;;;;;;;;;;;;;22.25;39.88;101101.75;5005653;28;6844;-77
2022/08/11 02:29:22;;;;;;;;;;;;;;;22.24;39.92;101096.50;4997854;28;7193;-77
2022/08/11 02:35:20;;;;;;;;;;;;;;;22.19;39.91;101093.84;4980638;28;7704;-78
2022/08/11 02:38:11;;;;;;;;;;;;;;;22.17;39.73;101092.97;5012218;28;6804;-77
2022/08/11 02:40:42;;;;;;;;;;;;;;;22.17;39.92;101091.25;5017463;28;7338;-77
2022/08/11 02:43:57;;;;;;;;;;;;;;;22.15;40.05;101089.47;4984605;28;7498;-77
2022/08/11 02:46:39;;;;;;;;;;;;;;;22.14;40.01;101096.41;4974180;28;7269;-77
2022/08/11 02:49:53;;;;;;;;;;;;;;;22.10;40.06;101089.41;4987260;28;7250;-77
2022/08/11 02:52:50;;;;;;;;;;;;;;;22.05;39.80;101089.38;5001833;28;7346;-77
2022/08/11 02:56:00;;;;;;;;;;;;;;;21.98;40.36;101090.16;4982190;28;7075;-77
2022/08/11 03:02:05;;;;;;;;;;;;;;;21.84;40.69;101096.94;4995038;28;6820;-77
2022/08/11 03:05:12;;;;;;;;;;;;;;;21.76;40.67;101095.13;4995743;28;7126;-77
2022/08/11 03:08:30;;;;;;;;;;;;;;;21.67;41.09;101094.06;5011975;28;7294;-77
2022/08/11 03:17:55;;;;;;;;;;;;;;;21.38;41.43;101098.03;5005033;28;6970;-78
2022/08/11 03:20:56;;;;;;;;;;;;;;;21.29;41.80;101100.50;4982480;28;6824;-77
2022/08/11 03:23:34;;;;;;;;;;;;;;;21.21;41.82;101100.41;5014399;28;7443;-77
2022/08/11 03:26:37;;;;;;;;;;;;;;;21.15;42.28;101101.19;5005916;28;7301;-77
2022/08/11 03:29:50;;;;;;;;;;;;;;;21.06;42.27;101093.22;4982278;28;7301;-77
2022/08/11 03:32:40;;;;;;;;;;;;;;;21.00;42.83;101101.81;5004732;28;6828;-77
2022/08/11 03:35:10;;;;;;;;;;;;;;;20.94;42.78;101097.38;5014272;28;6995;-77
2022/08/11 03:37:56;;;;;;;;;;;;;;;20.92;42.92;101101.69;5017256;28;6969;-77
2022/08/11 03:44:39;;;;;;;;;;;;;;;20.79;42.86;101099.72;5003291;28;7380;-77
2022/08/11 03:47:22;;;;;;;;;;;;;;;20.74;43.49;101090.94;4980579;28;7255;-76
2022/08/11 03:50:24;;;;;;;;;;;;;;;20.71;43.57;101098.69;5014349;28;6864;-75
2022/08/11 03:53:48;;;;;;;;;;;;;;;20.70;43.18;101096.94;5010702;28;6990;-76
2022/08/11 03:57:03;;;;;;;;;;;;;;;20.72;43.47;101093.53;4982739;28;6800;-76
2022/08/11 04:00:28;;;;;;;;;;;;;;;20.76;43.09;101092.72;4978718;28;6832;-76
2022/08/11 04:03:52;;;;;;;;;;;;;;;20.82;43.21;101091.97;4983017;28;12557;-76
2022/08/11 04:06:56;;;;;;;;;;;;;;;20.88;43.34;101092.09;4974804;28;6951;-76
2022/08/11 04:10:06;;;;;;;;;;;;;;;20.94;42.90;101092.16;5011686;28;7041;-75
2022/08/11 04:12:47;;;;;;;;;;;;;;;21.00;43.18;101096.59;4972508;28;8189;-75
2022/08/11 04:18:32;;;;;;;;;;;;;;;21.02;43.23;101088.81;4982616;28;6788;-76
2022/08/11 04:20:57;;;;;;;;;;;;;;;21.01;43.03;101082.75;5027003;28;7014;-75
2022/08/11 04:24:06;;;;;;;;;;;;;;;21.03;43.15;101082.75;4980216;28;6787;-75
2022/08/11 04:27:12;;;;;;;;;;;;;;;21.03;43.36;101078.41;5002888;28;6836;-75
2022/08/11 04:30:16;;;;;;;;;;;;;;;21.04;43.13;101082.78;4976395;28;6982;-78
2022/08/11 04:33:12;;;;;;;;;;;;;;;21.05;43.53;101084.53;4980371;28;11501;-76
2022/08/11 04:36:08;;;;;;;;;;;;;;;21.06;43.51;101082.81;4976080;28;7011;-75
2022/08/11 04:38:58;;;;;;;;;;;;;;;21.08;43.54;101081.09;4976902;28;6827;-76
2022/08/11 04:45:38;;;;;;;;;;;;;;;21.07;44.05;101088.03;4982932;28;6816;-76
2022/08/11 05:01:40;;;;;;;;;;;;;;;21.22;43.70;101094.34;4981310;28;8248;-75
2022/08/11 05:05:29;;;;;;;;;;;;;;;21.30;43.59;101099.66;5009601;28;8354;-75
2022/08/11 05:07:58;;;;;;;;;;;;;;;21.44;43.51;101092.94;4975469;28;6990;-75
2022/08/11 05:10:36;;;;;;;;;;;;;;;21.60;43.58;101095.72;4977957;28;6970;-76
2022/08/11 05:36:51;;;;;;;;;;;;;;;23.44;41.40;101112.38;5006059;28;6812;-76
2022/08/11 05:56:16;;;;;;;;;;;;;;;24.32;39.16;101104.91;5005975;28;6796;-76
2022/08/11 05:58:46;;;;;;;;;;;;;;;24.32;38.61;101103.16;5011586;28;6939;-76
2022/08/11 06:01:40;;;;;;;;;;;;;;;24.31;39.30;101105.78;5008649;28;6883;-76
2022/08/11 06:04:14;;;;;;;;;;;;;;;24.31;39.22;101105.78;5010354;28;7943;-76
2022/08/11 06:06:55;;;;;;;;;;;;;;;24.34;38.80;101108.41;5007363;28;6861;-76
2022/08/11 06:09:46;;;;;;;;;;;;;;;24.33;38.40;101101.41;4973737;28;6962;-76
2022/08/11 06:12:31;;;;;;;;;;;;;;;24.33;38.91;101101.41;4980144;28;6820;-76
2022/08/11 06:15:12;;;;;;;;;;;;;;;24.36;38.32;101109.28;5010349;28;7297;-76
2022/08/11 06:17:47;;;;;;;;;;;;;;;24.36;38.96;101102.28;5012340;28;6808;-76
2022/08/11 06:20:17;;;;;;;;;;;;;;;24.38;38.89;101099.69;4984086;28;6979;-76
2022/08/11 06:22:47;;;;;;;;;;;;;;;24.42;38.49;101096.19;5010837;28;6972;-76
2022/08/11 06:25:14;;;;;;;;;;;;;;;24.47;39.02;101104.94;5029796;28;6996;-76
2022/08/11 06:27:44;;;;;;;;;;;;;;;24.51;38.14;101104.06;5015928;28;6792;-76
2022/08/11 06:30:13;;;;;;;;;;;;;;;24.57;38.47;101097.09;5015076;28;7086;-76
2022/08/11 06:32:44;;;;;;;;;;;;;;;24.62;38.31;101101.47;5009956;28;11462;-75
2022/08/11 06:35:28;;;;;;;;;;;;;;;24.70;38.25;101106.69;5003591;28;7005;-76
2022/08/11 06:38:23;;;;;;;;;;;;;;;24.79;38.27;101103.25;4980679;28;6823;-75
2022/08/11 06:44:13;;;;;;;;;;;;;;;24.95;37.15;101107.59;5008008;28;6971;-76
2022/08/11 06:46:42;;;;;;;;;;;;;;;25.01;37.76;101106.72;5013195;28;8413;-76
2022/08/11 06:52:12;;;;;;;;;;;;;;;25.18;36.86;101096.22;5005721;28;6808;-75
2022/08/11 06:54:49;;;;;;;;;;;;;;;25.29;37.15;101108.44;4979364;28;6799;-76
2022/08/11 07:03:07;;;;;;;;;;;;;;;25.57;36.18;101101.38;5007407;28;11679;-76
2022/08/11 07:05:36;;;;;;;;;;;;;;;25.67;36.03;101098.72;5005530;28;6991;-76
2022/08/11 07:28:54;;;;;;;;;;;;;;;26.16;35.81;101098.50;5009663;28;7131;-76
2022/08/11 07:28:54;;;;;;;;;;;;;;;26.34;35.30;101099.28;5004555;28;6885;-76
2022/08/11 07:29:13;;;;;;;;;;;;;;;26.82;34.40;101108.56;5007604;28;6812;-76
2022/08/11 07:31:49;;;;;;;;;;;;;;;26.96;34.02;101101.47;5012434;28;8495;-75
2022/08/11 07:34:29;;;;;;;;;;;;;;;27.12;33.77;101106.56;4986784;28;7179;-76
2022/08/11 07:37:11;;;;;;;;;;;;;;;27.27;33.56;101097.66;4978981;28;8365;-75
2022/08/11 07:39:38;;;;;;;;;;;;;;;27.44;33.47;101113.28;5014582;28;6923;-76
2022/08/11 07:42:08;;;;;;;;;;;;;;;27.57;32.84;101109.63;5015770;28;6796;-76
2022/08/11 07:48:10;;;;;;;;;;;;;;;27.68;32.78;101100.75;5013176;28;6804;-77
2022/08/11 07:52:59;;;;;;;;;;;;;;;28.06;31.88;101093.25;4981990;28;6903;-77
2022/08/11 07:55:30;;;;;;;;;;;;;;;28.19;31.49;101093.94;5012428;28;7203;-76
2022/08/11 08:17:51;;;;;;;;;;;;;;;29.22;30.30;101086.09;5008756;28;7556;-76
2022/08/11 08:20:22;;;;;;;;;;;;;;;29.32;30.77;101086.78;4981048;28;6867;-77
2022/08/11 08:22:55;;;;;;;;;;;;;;;29.44;29.57;101090.09;5012679;28;7209;-76
2022/08/11 08:25:34;;;;;;;;;;;;;;;29.55;29.41;101082.84;4969931;28;7178;-77
2022/08/11 08:28:06;;;;;;;;;;;;;;;29.66;29.66;101096.69;5009760;28;7074;-77
2022/08/11 08:30:48;;;;;;;;;;;;;;;29.75;29.15;101092.13;4991720;28;7171;-77
2022/08/11 08:33:30;;;;;;;;;;;;;;;29.89;29.29;101091.81;5003532;28;7222;-76
2022/08/11 08:36:10;;;;;;;;;;;;;;;29.99;29.41;101096.00;5010140;28;6982;-76
2022/08/11 08:38:45;;;;;;;;;;;;;;;30.12;29.36;101088.69;4990391;28;7006;-76
2022/08/11 08:41:21;;;;;;;;;;;;;;;30.25;29.07;101088.41;4976244;28;7198;-76
2022/08/11 08:43:52;;;;;;;;;;;;;;;30.43;28.58;101092.38;5009892;28;7606;-76
2022/08/11 08:46:26;;;;;;;;;;;;;;;30.62;28.23;101090.16;4974551;28;6950;-77
2022/08/11 08:48:55;;;;;;;;;;;;;;;30.83;28.32;101086.13;4994770;28;7301;-77
2022/08/11 08:51:35;;;;;;;;;;;;;;;31.03;28.33;101080.28;4995694;28;7027;-77
2022/08/11 08:54:18;;;;;;;;;;;;;;;31.28;27.69;101087.59;4976750;28;7077;-77
2022/08/11 08:56:47;;;;;;;;;;;;;;;31.52;27.51;101089.56;5010831;28;7117;-77
2022/08/11 08:59:15;;;;;;;;;;;;;;;31.77;27.64;101076.47;5024012;28;6971;-76
2022/08/11 09:01:58;;;;;;;;;;;;;;;32.14;26.81;101071.81;4997483;28;7952;-77
2022/08/11 09:04:27;;;;;;;;;;;;;;;32.58;26.29;101081.91;4980509;28;7778;-76
2022/08/11 09:06:57;;;;;;;;;;;;;;;33.16;25.65;101077.31;5014062;28;6788;-77
2022/08/11 09:09:25;;;;;;;;;;;;;;;33.89;24.96;101072.78;5011976;28;7124;-76
2022/08/11 09:11:52;;;;;;;;;;;;;;;34.64;24.51;101075.13;5016755;28;7200;-76
2022/08/11 09:17:18;;;;;;;;;;;;;;;36.13;22.66;101073.75;5009070;28;6845;-77
2022/08/11 09:19:47;;;;;;;;;;;;;;;36.80;21.77;101070.41;5013098;28;7770;-76
2022/08/11 09:27:52;;;;;;;;;;;;;;;38.62;20.13;101073.72;5006031;28;6796;-76
2022/08/11 09:30:19;;;;;;;;;;;;;;;39.09;19.65;101067.41;5008826;28;7311;-76
2022/08/11 09:32:46;;;;;;;;;;;;;;;39.54;18.93;101067.28;5010182;28;6800;-77
2022/08/11 09:35:13;;;;;;;;;;;;;;;39.89;18.81;101061.47;5012817;28;7192;-76
2022/08/11 09:40:28;;;;;;;;;;;;;;;40.87;17.88;101060.25;5004521;28;6803;-77
2022/08/11 09:46:03;;;;;;;;;;;;;;;41.85;16.78;101061.34;4983953;28;6839;-76
2022/08/11 09:48:44;;;;;;;;;;;;;;;42.18;16.35;101059.75;4985667;28;7307;-76
2022/08/11 09:51:12;;;;;;;;;;;;;;;42.54;16.07;101057.06;4982728;28;7073;-76
2022/08/11 09:53:41;;;;;;;;;;;;;;;42.84;15.75;101058.34;5011214;28;7290;-76
2022/08/11 09:59:00;;;;;;;;;;;;;;;43.12;14.86;101057.97;4969570;28;6800;-76
2022/08/11 10:01:41;;;;;;;;;;;;;;;43.32;14.64;101063.59;4971195;28;7176;-77
2022/08/11 10:04:33;;;;;;;;;;;;;;;43.52;14.47;101065.53;4974825;28;6872;-77
2022/08/11 10:07:03;;;;;;;;;;;;;;;43.70;13.86;101049.66;4980741;28;6808;-77
2022/08/11 10:09:54;;;;;;;;;;;;;;;43.77;13.80;101058.13;5011551;28;7029;-77
2022/08/11 10:12:37;;;;;;;;;;;;;;;43.97;13.75;101047.50;4992043;28;6998;-78
2022/08/11 10:20:49;;;;;;;;;;;;;;;44.54;12.95;101036.38;5005226;28;6796;-77
2022/08/11 10:28:47;;;;;;;;;;;;;;;44.80;12.55;101036.78;4982065;28;6808;-77
2022/08/11 10:34:00;;;;;;;;;;;;;;;44.95;12.52;101033.69;5006497;28;7140;-77
2022/08/11 10:36:47;;;;;;;;;;;;;;;45.08;12.34;101028.09;4976660;28;6820;-77
2022/08/11 10:39:19;;;;;;;;;;;;;;;45.14;12.12;101034.78;4981077;28;6795;-77
2022/08/11 10:44:38;;;;;;;;;;;;;;;45.18;12.07;101020.00;4984843;28;6797;-78
2022/08/11 11:01:00;;;;;;;;;;;;;;;45.72;11.59;101011.53;5009613;28;6804;-77
2022/08/11 11:03:29;;;;;;;;;;;;;;;45.72;11.41;101006.09;5017768;28;6791;-78
2022/08/11 11:06:11;;;;;;;;;;;;;;;45.71;11.43;101001.69;4992900;28;6995;-77
2022/08/11 11:08:51;;;;;;;;;;;;;;;45.39;11.30;101008.25;5012023;28;7216;-77
2022/08/11 11:17:54;;;;;;;;;;;;;;;45.02;12.02;100998.91;5009681;28;6816;-78
2022/08/11 11:19:39;;;;;;;;;;;;;;;44.59;11.71;100993.63;4986186;28;6860;-78
2022/08/11 11:26:09;;;;;;;;;;;;;;;44.15;11.96;101001.00;5005519;28;6796;-78
2022/08/11 11:29:19;;;;;;;;;;;;;;;43.97;12.21;101012.41;4969077;28;7949;-78
2022/08/11 11:32:15;;;;;;;;;;;;;;;44.03;12.24;100987.56;4982621;28;6974;-78
2022/08/11 11:34:58;;;;;;;;;;;;;;;44.25;12.05;100999.25;4984653;28;6824;-78
2022/08/11 11:37:24;;;;;;;;;;;;;;;44.55;12.04;100997.56;5013526;28;6986;-78
2022/08/11 11:39:53;;;;;;;;;;;;;;;44.80;11.79;100998.97;4984332;28;7216;-79
2022/08/11 11:42:21;;;;;;;;;;;;;;;44.98;11.99;100986.66;5015854;28;7145;-78
2022/08/11 11:44:48;;;;;;;;;;;;;;;45.25;12.05;100993.25;5011963;28;6791;-79
2022/08/11 11:47:19;;;;;;;;;;;;;;;45.48;11.29;100977.66;5013719;28;7142;-80
2022/08/11 11:49:47;;;;;;;;;;;;;;;45.38;11.13;100980.34;5011218;28;7215;-79
2022/08/11 11:52:17;;;;;;;;;;;;;;;45.27;11.16;100975.03;5012104;28;7222;-78
2022/08/11 11:54:49;;;;;;;;;;;;;;;45.08;11.02;100984.81;5007868;28;6799;-78
2022/08/11 12:02:53;;;;;;;;;;;;;;;44.82;11.06;100966.41;4977000;28;11254;-78
2022/08/11 12:05:21;;;;;;;;;;;;;;;44.67;11.17;100964.06;5015901;28;7378;-79
2022/08/11 12:10:32;;;;;;;;;;;;;;;44.69;11.23;100955.84;5005201;28;6808;-77
2022/08/11 12:15:48;;;;;;;;;;;;;;;44.97;11.44;100969.56;5010460;28;6816;-78
2022/08/11 12:18:15;;;;;;;;;;;;;;;45.12;10.96;100961.06;5028289;28;6990;-79
2022/08/11 12:20:44;;;;;;;;;;;;;;;45.17;11.00;100948.00;5012454;28;6996;-78
2022/08/11 12:28:44;;;;;;;;;;;;;;;45.06;11.02;100946.25;5004931;28;6808;-78
2022/08/11 12:31:11;;;;;;;;;;;;;;;45.15;10.79;100950.81;5002759;28;7167;-77
2022/08/11 12:33:39;;;;;;;;;;;;;;;45.18;10.94;100934.31;5004946;28;7171;-77
2022/08/11 12:36:14;;;;;;;;;;;;;;;45.18;11.06;100923.50;5010671;28;6864;-77
2022/08/11 12:38:45;;;;;;;;;;;;;;;44.99;10.81;100934.28;4975754;28;7982;-78
2022/08/11 12:46:47;;;;;;;;;;;;;;;44.12;11.37;100921.97;4982289;28;7194;-78
2022/08/11 12:52:10;;;;;;;;;;;;;;;44.51;11.60;100917.75;5008976;28;6808;-79
2022/08/11 12:54:42;;;;;;;;;;;;;;;44.71;11.15;100915.16;4983674;28;7358;-78
2022/08/11 13:05:51;;;;;;;;;;;;;;;44.95;10.97;100901.25;4979855;28;7541;-78
2022/08/11 13:08:19;;;;;;;;;;;;;;;44.70;11.01;100908.03;5007290;28;6917;-78
2022/08/11 13:13:33;;;;;;;;;;;;;;;43.99;11.54;100899.75;5006703;28;9231;-76
2022/08/11 13:15:59;;;;;;;;;;;;;;;43.92;11.97;100896.72;5014862;28;6855;-77
2022/08/11 13:18:26;;;;;;;;;;;;;;;43.96;11.44;100891.94;5027599;28;6952;-76
2022/08/11 13:20:57;;;;;;;;;;;;;;;43.86;11.52;100896.41;4989519;28;7276;-78
2022/08/11 13:23:24;;;;;;;;;;;;;;;43.71;11.85;100892.19;5010397;28;7186;-78
2022/08/11 13:25:55;;;;;;;;;;;;;;;43.62;12.25;100882.19;5012097;28;7246;-77
2022/08/11 13:28:24;;;;;;;;;;;;;;;43.66;12.58;100880.91;4982566;28;8102;-78
2022/08/11 13:33:42;;;;;;;;;;;;;;;43.89;12.16;100872.69;5008379;28;6800;-78
2022/08/11 13:36:09;;;;;;;;;;;;;;;43.90;11.99;100868.16;4979981;28;6977;-78
2022/08/11 13:38:40;;;;;;;;;;;;;;;43.88;12.20;100870.16;5011064;28;7179;-76
2022/08/11 13:41:37;;;;;;;;;;;;;;;43.70;12.05;100876.97;5011165;28;6867;-79
2022/08/11 13:43:54;;;;;;;;;;;;;;;43.42;12.28;100865.00;5002204;28;6883;-78
2022/08/11 13:46:23;;;;;;;;;;;;;;;43.06;11.98;100864.38;5011938;28;7109;-78
2022/08/11 13:48:55;;;;;;;;;;;;;;;42.82;12.59;100868.13;5008981;28;9992;-78
2022/08/11 13:51:29;;;;;;;;;;;;;;;42.73;12.61;100861.63;5012348;28;7015;-78
2022/08/11 13:54:17;;;;;;;;;;;;;;;42.54;12.38;100859.59;5008559;28;6891;-77
2022/08/11 13:56:46;;;;;;;;;;;;;;;42.27;12.82;100858.13;5013826;28;7174;-80
2022/08/11 13:59:19;;;;;;;;;;;;;;;42.22;13.05;100863.03;4986553;28;7141;-78
2022/08/11 14:01:52;;;;;;;;;;;;;;;42.12;12.89;100850.31;4987604;28;7018;-79
2022/08/11 14:04:50;;;;;;;;;;;;;;;41.95;12.67;100850.75;5013127;28;7230;-78
2022/08/11 14:07:21;;;;;;;;;;;;;;;41.63;12.68;100839.66;4970930;28;6972;-78
2022/08/11 14:09:57;;;;;;;;;;;;;;;41.31;12.85;100842.13;4996779;28;7003;-77
2022/08/11 14:15:26;;;;;;;;;;;;;;;40.96;13.61;100839.25;5003124;28;7195;-78
2022/08/11 14:18:05;;;;;;;;;;;;;;;40.90;13.27;100837.06;5010634;28;6841;-78
2022/08/11 14:23:49;;;;;;;;;;;;;;;40.78;13.65;100846.00;4982875;28;6808;-77
2022/08/11 14:26:22;;;;;;;;;;;;;;;40.70;13.65;100841.16;4980314;28;6828;-77
2022/08/11 14:29:04;;;;;;;;;;;;;;;40.64;13.93;100833.56;5009428;28;7142;-78
2022/08/11 14:31:34;;;;;;;;;;;;;;;40.67;13.41;100825.28;5011486;28;8512;-78
2022/08/11 14:34:09;;;;;;;;;;;;;;;40.75;13.71;100819.34;5015010;28;7201;-79
2022/08/11 14:36:42;;;;;;;;;;;;;;;40.83;13.66;100816.97;5013504;28;7173;-78
2022/08/11 14:39:16;;;;;;;;;;;;;;;40.87;13.56;100821.16;5015746;28;6880;-78
2022/08/11 14:47:22;;;;;;;;;;;;;;;40.99;13.51;100818.50;5007037;28;7002;-78
2022/08/11 14:49:53;;;;;;;;;;;;;;;41.04;13.38;100817.19;4981838;28;7760;-78
2022/08/11 14:52:19;;;;;;;;;;;;;;;41.09;13.49;100808.78;5011731;28;6792;-77
2022/08/11 14:57:40;;;;;;;;;;;;;;;41.19;13.59;100803.56;4979662;28;6804;-77
2022/08/11 15:00:14;;;;;;;;;;;;;;;41.18;13.24;100793.78;4978524;28;6800;-77
2022/08/11 15:05:27;;;;;;;;;;;;;;;40.94;13.21;100797.34;4979713;28;7226;-76
2022/08/11 15:07:56;;;;;;;;;;;;;;;40.78;13.41;100789.59;4979182;28;7208;-78
2022/08/11 15:10:23;;;;;;;;;;;;;;;40.60;13.25;100781.06;5010660;28;7130;-78
2022/08/11 15:12:49;;;;;;;;;;;;;;;40.49;13.52;100785.38;5013402;28;6817;-78
2022/08/11 15:18:09;;;;;;;;;;;;;;;40.21;13.47;100775.75;4982501;28;6796;-78
2022/08/11 15:37:25;;;;;;;;;;;;;;;39.57;14.07;100777.50;5008681;28;6800;-77
2022/08/11 15:37:53;;;;;;;;;;;;;;;38.99;14.45;100754.56;4981409;28;7228;-78
2022/08/11 15:46:54;;;;;;;;;;;;;;;38.61;14.67;100758.75;4981152;28;6816;-78
2022/08/11 15:49:36;;;;;;;;;;;;;;;38.41;15.14;100764.53;5015019;28;7217;-78
2022/08/11 15:52:20;;;;;;;;;;;;;;;38.22;15.17;100757.66;4980868;28;6829;-78
2022/08/11 15:54:48;;;;;;;;;;;;;;;38.11;15.01;100757.50;5014387;28;7335;-78
2022/08/11 16:05:22;;;;;;;;;;;;;;;37.95;15.33;100750.41;5006229;28;6852;-78
2022/08/11 16:07:50;;;;;;;;;;;;;;;37.84;15.40;100745.75;4959372;28;7080;-79
2022/08/11 16:10:22;;;;;;;;;;;;;;;37.70;15.09;100743.03;5023060;28;6984;-80
2022/08/11 16:18:52;;;;;;;;;;;;;;;37.43;15.23;100733.91;4974740;28;6808;-79
2022/08/11 16:21:49;;;;;;;;;;;;;;;37.32;15.95;100737.22;5013794;28;7007;-79
2022/08/11 16:24:19;;;;;;;;;;;;;;;37.27;15.58;100731.31;4978152;28;7288;-78
2022/08/11 16:26:47;;;;;;;;;;;;;;;37.24;15.61;100737.69;4997799;28;7309;-78
2022/08/11 16:29:13;;;;;;;;;;;;;;;37.20;16.07;100729.94;4980185;28;6792;-79
2022/08/11 16:31:41;;;;;;;;;;;;;;;37.14;15.99;100728.50;5009354;28;6807;-79
2022/08/11 16:38:33;;;;;;;;;;;;;;;37.06;15.63;100736.13;5015189;28;6965;-79
2022/08/11 16:39:45;;;;;;;;;;;;;;;36.87;15.93;100725.63;4981276;28;6800;-79
2022/08/11 16:47:47;;;;;;;;;;;;;;;36.54;16.68;100725.63;5008417;28;6804;-79
2022/08/11 16:50:14;;;;;;;;;;;;;;;36.46;16.35;100730.56;5010518;28;8617;-78
2022/08/11 16:52:41;;;;;;;;;;;;;;;36.39;16.85;100727.34;4979286;28;7068;-79
2022/08/11 16:55:08;;;;;;;;;;;;;;;36.32;16.70;100723.31;4998824;28;7136;-79
2022/08/11 17:00:22;;;;;;;;;;;;;;;36.16;17.17;100717.97;4985852;28;7532;-79
2022/08/11 17:14:53;;;;;;;;;;;;;;;35.88;17.65;100715.91;4976006;28;6816;-76
2022/08/11 17:17:37;;;;;;;;;;;;;;;35.84;17.33;100710.75;4991590;28;7020;-77
2022/08/11 17:20:09;;;;;;;;;;;;;;;35.80;17.60;100711.84;5013178;28;6792;-78
2022/08/11 17:25:31;;;;;;;;;;;;;;;35.68;17.40;100712.53;5007348;28;7136;-78
2022/08/11 17:27:59;;;;;;;;;;;;;;;35.56;18.15;100714.03;5008828;28;6983;-76
2022/08/11 17:35:27;;;;;;;;;;;;;;;35.44;17.80;100712.81;4993668;28;6969;-75
2022/08/11 17:36:01;;;;;;;;;;;;;;;35.26;17.95;100717.31;5008497;28;6811;-77
2022/08/11 17:38:30;;;;;;;;;;;;;;;35.15;18.35;100713.41;5024832;28;6982;-76
2022/08/11 17:49:20;;;;;;;;;;;;;;;34.75;18.51;100705.56;5005211;28;6784;-79
2022/08/11 18:00:11;;;;;;;;;;;;;;;34.44;18.96;100716.81;5005023;28;6808;-78
2022/08/11 18:05:39;;;;;;;;;;;;;;;34.31;19.26;100709.41;5003273;28;7160;-77
